MSC Annamaria — H3HN — position and weather

sailwx.info

Track history (hours):
 
Tides and Currents Weather Stations Pressure Air Temp Water Temp Dewpoint Dewpoint Depression Visibility Wind Speed Wind Dir Waves Ship Positions

MSC Annamaria

Last reported at 2014-Aug-27 18:26 UTC. Time now 2014-Aug-29 14:17 UTC.
Position N 36°25' E 023°13'.

Length 188 m; draft 6.5 m.

Type: Ship (hazmat cat A). MMSI: 353852000.

Date/timePositionNaut miles runAvg speedWind from/ knotsBaromVisibWave heightAir tempDewpointWater temp
2014-Aug-27 18:26N 36°25' E 023°13'1513.8
2014-Aug-27 17:19N 36°40' E 023°18'1013.5
2014-Aug-27 16:33N 36°50' E 023°22'1313.1
2014-Aug-27 15:33N 37°02' E 023°27'1313.2
2014-Aug-27 14:33N 37°14' E 023°35'1313.1
2014-Aug-27 13:33N 37°26' E 023°40'1313.0
2014-Aug-27 12:33N 37°39' E 023°42'1313.6
2014-Aug-27 11:33N 37°52' E 023°36'6 5.6
2014-Aug-27 10:32N 37°57' E 023°36'0 0.0
2014-Aug-27 09:31N 37°57' E 023°36'0 0.0
2014-Aug-27 08:31N 37°57' E 023°36'0 0.0
2014-Aug-27 07:33N 37°57' E 023°36'0 0.0
2014-Aug-27 06:31N 37°57' E 023°36'0 0.0
2014-Aug-27 05:32N 37°57' E 023°36'0 0.0
2014-Aug-27 04:31N 37°57' E 023°36'0 0.0
2014-Aug-27 03:32N 37°57' E 023°36'0 0.0
2014-Aug-27 02:31N 37°57' E 023°36'0 0.0
2014-Aug-27 01:32N 37°57' E 023°36'2 2.4
2014-Aug-27 00:33N 37°55' E 023°36'1 0.5
2014-Aug-26 23:31N 37°55' E 023°35'0 0.2
2014-Aug-26 22:31N 37°55' E 023°35'0 0.1
2014-Aug-26 21:33N 37°55' E 023°35'0 0.3
2014-Aug-26 20:31N 37°55' E 023°35'0 0.5
2014-Aug-26 19:30N 37°54' E 023°35'0 0.3
2014-Aug-26 18:29N 37°54' E 023°34'0 0.4
2014-Aug-26 17:31N 37°54' E 023°35'1 0.8
2014-Aug-26 16:31N 37°53' E 023°35'1 0.9
2014-Aug-26 15:33N 37°52' E 023°35'3 2.7
2014-Aug-26 14:33N 37°55' E 023°36'1 1.0
2014-Aug-26 13:32N 37°54' E 023°36'1 1.0
2014-Aug-26 12:32N 37°53' E 023°36'1 0.9
2014-Aug-26 11:32N 37°52' E 023°35'4 4.4
2014-Aug-26 10:32N 37°48' E 023°36'0 0.4
2014-Aug-26 09:31N 37°48' E 023°36'0 0.4
2014-Aug-26 08:32N 37°48' E 023°36'1 0.7
2014-Aug-26 07:31N 37°49' E 023°36'1 0.7
2014-Aug-26 06:32N 37°50' E 023°36'1 0.8
2014-Aug-26 05:31N 37°50' E 023°36'1 0.9
2014-Aug-26 04:33N 37°51' E 023°36'1 0.8
2014-Aug-26 03:33N 37°52' E 023°35'3 2.6
2014-Aug-26 02:33N 37°51' E 023°38'1110.6
2014-Aug-26 01:33N 37°41' E 023°45'5613.3
2014-Aug-25 21:20N 36°49' E 023°21'2513.1
2014-Aug-25 19:27N 36°25' E 023°14'  
Track history (hours):
 
Tides and Currents Weather Stations Pressure Air Temp Water Temp Dewpoint Dewpoint Depression Visibility Wind Speed Wind Dir Waves Ship Positions

MSC Annamaria

Last reported at 2014-Aug-27 18:26 UTC. Time now 2014-Aug-29 14:17 UTC.
Position N 36°25' E 023°13'.

Length 188 m; draft 6.5 m.

Type: Ship (hazmat cat A). MMSI: 353852000.

Date/timePositionNaut miles runAvg speedWind from/ knotsBaromVisibWave heightAir tempDewpointWater temp
2014-Aug-27 18:26N 36°25' E 023°13'1513.8
2014-Aug-27 17:19N 36°40' E 023°18'1013.5
2014-Aug-27 16:33N 36°50' E 023°22'1313.1
2014-Aug-27 15:33N 37°02' E 023°27'1313.2
2014-Aug-27 14:33N 37°14' E 023°35'1313.1
2014-Aug-27 13:33N 37°26' E 023°40'1313.0
2014-Aug-27 12:33N 37°39' E 023°42'1313.6
2014-Aug-27 11:33N 37°52' E 023°36'6 5.6
2014-Aug-27 10:32N 37°57' E 023°36'0 0.0
2014-Aug-27 09:31N 37°57' E 023°36'0 0.0
2014-Aug-27 08:31N 37°57' E 023°36'0 0.0
2014-Aug-27 07:33N 37°57' E 023°36'0 0.0
2014-Aug-27 06:31N 37°57' E 023°36'0 0.0
2014-Aug-27 05:32N 37°57' E 023°36'0 0.0
2014-Aug-27 04:31N 37°57' E 023°36'0 0.0
2014-Aug-27 03:32N 37°57' E 023°36'0 0.0
2014-Aug-27 02:31N 37°57' E 023°36'0 0.0
2014-Aug-27 01:32N 37°57' E 023°36'2 2.4
2014-Aug-27 00:33N 37°55' E 023°36'1 0.5
2014-Aug-26 23:31N 37°55' E 023°35'0 0.2
2014-Aug-26 22:31N 37°55' E 023°35'0 0.1
2014-Aug-26 21:33N 37°55' E 023°35'0 0.3
2014-Aug-26 20:31N 37°55' E 023°35'0 0.5
2014-Aug-26 19:30N 37°54' E 023°35'0 0.3
2014-Aug-26 18:29N 37°54' E 023°34'0 0.4
2014-Aug-26 17:31N 37°54' E 023°35'1 0.8
2014-Aug-26 16:31N 37°53' E 023°35'1 0.9
2014-Aug-26 15:33N 37°52' E 023°35'3 2.7
2014-Aug-26 14:33N 37°55' E 023°36'1 1.0
2014-Aug-26 13:32N 37°54' E 023°36'1 1.0
2014-Aug-26 12:32N 37°53' E 023°36'1 0.9
2014-Aug-26 11:32N 37°52' E 023°35'4 4.4
2014-Aug-26 10:32N 37°48' E 023°36'0 0.4
2014-Aug-26 09:31N 37°48' E 023°36'0 0.4
2014-Aug-26 08:32N 37°48' E 023°36'1 0.7
2014-Aug-26 07:31N 37°49' E 023°36'1 0.7
2014-Aug-26 06:32N 37°50' E 023°36'1 0.8
2014-Aug-26 05:31N 37°50' E 023°36'1 0.9
2014-Aug-26 04:33N 37°51' E 023°36'1 0.8
2014-Aug-26 03:33N 37°52' E 023°35'3 2.6
2014-Aug-26 02:33N 37°51' E 023°38'1110.6
2014-Aug-26 01:33N 37°41' E 023°45'5613.3
2014-Aug-25 21:20N 36°49' E 023°21'2513.1
2014-Aug-25 19:27N 36°25' E 023°14'  

Dump ship's entire track history